Time;durP1;ratioP1;P1;durP2;ratioP2;P2;SDS_P1;SDS_P2;PMS_P1;PMS_P2;Temp;Humidity;BMP_temperature;BMP_pressure;BME280_temperature;BME280_humidity;BME280_pressure;Samples;Min_cycle;Max_cycle;Signal;HPM_P1;HPM_P2
2022/08/04 00:03:31;;;;;;;3.08;2.20;;;;;;;26.43;40.09;99845.56;10463383;28;20079;-72
2022/08/04 00:08:40;;;;;;;2.53;2.10;;;;;;;26.42;40.00;99850.22;10473664;28;20036;-72
2022/08/04 00:13:48;;;;;;;3.13;2.03;;;;;;;26.38;40.21;99848.19;10472276;28;20066;-73
2022/08/04 00:19:05;;;;;;;2.10;1.90;;;;;;;26.31;40.25;99842.84;10464040;28;20043;-73
2022/08/04 00:24:10;;;;;;;1.90;1.80;;;;;;;26.27;40.36;99838.91;10468733;28;20048;-72
2022/08/04 00:29:14;;;;;;;2.40;1.80;;;;;;;26.19;40.63;99834.66;10471555;28;20200;-74
2022/08/04 00:34:16;;;;;;;2.50;2.30;;;;;;;26.18;40.78;99840.34;10469494;28;20127;-71
2022/08/04 00:39:18;;;;;;;3.33;2.20;;;;;;;26.19;40.75;99847.47;10470859;28;20058;-72
2022/08/04 00:44:56;;;;;;;2.47;2.28;;;;;;;26.15;41.16;99843.56;10473290;28;20094;-72
2022/08/04 00:50:17;;;;;;;2.30;2.10;;;;;;;26.10;41.37;99842.34;10468453;28;20039;-72
2022/08/04 00:55:31;;;;;;;2.10;1.83;;;;;;;26.05;41.46;99836.78;10470453;28;20055;-74
2022/08/04 01:00:56;;;;;;;2.38;2.17;;;;;;;25.99;41.44;99826.81;10467315;28;20052;-72
2022/08/04 01:06:17;;;;;;;2.75;2.05;;;;;;;26.01;41.53;99838.31;10469143;28;20048;-73
2022/08/04 01:11:36;;;;;;;1.98;1.88;;;;;;;25.98;41.53;99833.31;10467545;28;20603;-74
2022/08/04 01:17:22;;;;;;;2.58;2.22;;;;;;;25.91;41.47;99827.13;10465992;28;20056;-72
2022/08/04 01:22:30;;;;;;;1.88;1.77;;;;;;;25.86;41.14;99829.75;10468314;28;20590;-72
2022/08/04 01:27:31;;;;;;;1.98;1.77;;;;;;;25.85;41.54;99820.75;10466791;28;21361;-70
2022/08/04 01:32:39;;;;;;;1.80;1.65;;;;;;;25.82;41.55;99823.09;10470430;28;20044;-73
2022/08/04 01:38:00;;;;;;;2.47;1.95;;;;;;;25.81;40.86;99826.91;10471612;28;21631;-73
2022/08/04 01:43:19;;;;;;;2.45;2.05;;;;;;;25.80;41.13;99819.78;10462371;28;20055;-73
2022/08/04 01:48:23;;;;;;;2.45;2.20;;;;;;;25.72;40.98;99819.03;10471324;28;20079;-70
2022/08/04 01:53:31;;;;;;;3.17;1.67;;;;;;;25.68;41.38;99822.47;10470830;28;20363;-73
2022/08/04 01:58:34;;;;;;;2.28;1.95;;;;;;;25.64;41.52;99824.84;10476414;28;20677;-73
2022/08/04 02:03:40;;;;;;;2.30;1.75;;;;;;;25.54;41.23;99824.59;10478469;28;20048;-73
2022/08/04 02:09:22;;;;;;;3.80;1.73;;;;;;;25.53;41.18;99821.00;10462994;28;20051;-71
2022/08/04 02:14:48;;;;;;;2.07;1.43;;;;;;;25.46;41.57;99811.28;10448263;28;20747;-71
2022/08/04 02:20:05;;;;;;;4.30;2.00;;;;;;;25.47;41.18;99815.66;10459768;28;20132;-73
2022/08/04 02:25:09;;;;;;;3.85;1.67;;;;;;;25.43;41.28;99817.19;10459330;28;20055;-71
2022/08/04 02:30:10;;;;;;;1.70;1.40;;;;;;;25.38;41.52;99813.25;10455303;28;20062;-71
2022/08/04 02:35:27;;;;;;;2.28;1.73;;;;;;;25.33;40.94;99821.31;10473940;28;20040;-72
2022/08/04 02:40:30;;;;;;;2.35;1.88;;;;;;;25.27;42.22;99824.94;10475073;28;20044;-72
2022/08/04 02:45:35;;;;;;;2.03;1.83;;;;;;;25.22;42.12;99816.59;10466151;28;20055;-73
2022/08/04 02:50:38;;;;;;;2.30;2.10;;;;;;;25.16;41.94;99815.66;10468248;28;20059;-71
2022/08/04 02:55:43;;;;;;;2.10;1.88;;;;;;;25.16;42.59;99804.75;10475618;28;20671;-72
2022/08/04 03:00:51;;;;;;;3.00;1.90;;;;;;;25.10;41.90;99800.25;10467619;28;21407;-72
2022/08/04 03:06:11;;;;;;;2.10;1.73;;;;;;;25.10;42.18;99810.28;10464521;28;20185;-71
2022/08/04 03:11:34;;;;;;;2.85;1.70;;;;;;;25.10;43.18;99810.28;10450843;28;20054;-73
2022/08/04 03:17:15;;;;;;;2.95;2.33;;;;;;;25.02;42.36;99804.09;10471038;28;20055;-72
2022/08/04 03:23:02;;;;;;;4.95;1.92;;;;;;;24.98;42.90;99797.47;10471430;28;20217;-73
2022/08/04 03:28:55;;;;;;;2.20;2.00;;;;;;;24.94;42.66;99812.59;10467241;28;20068;-72
2022/08/04 03:34:16;;;;;;;3.08;1.90;;;;;;;24.88;43.28;99811.59;10471804;28;20051;-72
2022/08/04 03:39:54;;;;;;;2.08;1.73;;;;;;;24.91;43.62;99813.03;10468124;28;20060;-71
2022/08/04 03:45:17;;;;;;;2.17;1.98;;;;;;;24.92;43.71;99813.88;10468940;28;20045;-70
2022/08/04 03:50:33;;;;;;;5.10;2.58;;;;;;;24.78;44.70;99824.91;10469587;28;20051;-73
2022/08/04 03:56:15;;;;;;;2.72;2.05;;;;;;;24.75;44.58;99825.38;10484804;28;20051;-72
2022/08/04 04:01:38;;;;;;;2.47;2.00;;;;;;;24.68;44.33;99822.75;10478278;28;20170;-73
2022/08/04 04:07:15;;;;;;;2.72;2.30;;;;;;;24.79;45.26;99828.47;10467448;28;20593;-71
2022/08/04 04:12:38;;;;;;;3.40;2.35;;;;;;;24.62;44.80;99829.09;10479625;28;20074;-72
2022/08/04 04:18:13;;;;;;;3.30;1.85;;;;;;;24.53;46.10;99823.06;10474180;28;20542;-70
2022/08/04 04:23:37;;;;;;;2.50;2.30;;;;;;;24.57;45.41;99820.72;10471822;28;20684;-73
2022/08/04 04:28:54;;;;;;;3.78;2.05;;;;;;;24.57;44.87;99823.44;10470026;28;20062;-72
2022/08/04 04:34:20;;;;;;;2.72;2.38;;;;;;;24.53;45.16;99822.25;10469919;28;20052;-72
2022/08/04 04:39:50;;;;;;;4.47;2.38;;;;;;;24.51;46.85;99824.34;10474410;28;20219;-71
2022/08/04 04:45:11;;;;;;;2.42;2.22;;;;;;;24.56;45.11;99826.41;10476085;28;20044;-71
2022/08/04 04:50:34;;;;;;;3.75;2.55;;;;;;;24.52;45.98;99826.03;10458780;28;20659;-73
2022/08/04 04:55:42;;;;;;;3.33;2.55;;;;;;;24.55;45.88;99824.75;10467233;28;20442;-71
2022/08/04 05:01:16;;;;;;;5.45;2.78;;;;;;;24.63;45.93;99833.44;10461797;28;20488;-75
2022/08/04 05:06:39;;;;;;;2.92;2.38;;;;;;;24.73;45.92;99835.66;10451272;28;20491;-72
2022/08/04 05:11:50;;;;;;;5.45;2.78;;;;;;;24.79;45.54;99842.91;10455742;28;20059;-74
2022/08/04 05:17:06;;;;;;;;;;;;;;;24.84;45.78;99836.78;10459879;28;20909;-74
2022/08/04 05:22:13;;;;;;;;;;;;;;;24.87;45.49;99841.78;10455378;28;19928;-72
2022/08/04 05:27:29;;;;;;;6.60;2.50;;;;;;;24.89;44.59;99842.38;10451418;28;19924;-72
2022/08/04 05:32:42;;;;;;;2.75;2.50;;;;;;;24.93;44.84;99838.13;10453672;28;20052;-72
2022/08/04 05:37:47;;;;;;;3.38;2.58;;;;;;;24.98;44.92;99846.47;10456256;28;20148;-73
2022/08/04 05:43:02;;;;;;;5.28;2.30;;;;;;;25.03;45.19;99846.59;10457804;28;20059;-74
2022/08/04 05:48:06;;;;;;;5.53;2.80;;;;;;;25.09;45.84;99852.22;10439871;28;20426;-74
2022/08/04 05:53:10;;;;;;;16.52;3.25;;;;;;;25.23;45.14;99840.06;10447874;28;20052;-77
2022/08/04 05:58:13;;;;;;;11.05;3.22;;;;;;;25.40;44.34;99852.00;10466950;28;20101;-75
2022/08/04 06:03:18;;;;;;;4.88;2.25;;;;;;;25.47;44.79;99849.19;10439711;28;20703;-73
2022/08/04 06:08:19;;;;;;;6.13;2.83;;;;;;;25.58;44.27;99853.00;10456939;28;20040;-74
2022/08/04 06:13:27;;;;;;;3.97;2.33;;;;;;;25.65;44.04;99845.56;10460286;28;20052;-71
2022/08/04 06:18:52;;;;;;;4.78;2.55;;;;;;;25.81;43.75;99848.72;10437955;28;20040;-74
2022/08/04 06:24:19;;;;;;;6.15;2.50;;;;;;;25.99;43.48;99842.38;10440769;28;20052;-73
2022/08/04 06:29:34;;;;;;;6.75;2.30;;;;;;;26.17;43.52;99846.88;10437933;28;20048;-72
2022/08/04 06:34:37;;;;;;;3.85;2.05;;;;;;;26.31;42.96;99842.84;10455212;28;20579;-74
2022/08/04 06:39:38;;;;;;;5.20;2.42;;;;;;;26.41;41.87;99843.06;10452337;28;20523;-74
2022/08/04 06:44:47;;;;;;;3.35;1.92;;;;;;;26.49;41.31;99847.34;10448235;28;20118;-75
2022/08/04 06:49:53;;;;;;;3.20;1.92;;;;;;;26.59;41.40;99857.66;10428173;28;20522;-74
2022/08/04 06:55:15;;;;;;;4.78;2.20;;;;;;;26.74;41.55;99857.22;10433435;28;20059;-75
2022/08/04 07:00:17;;;;;;;4.60;2.50;;;;;;;26.91;41.68;99854.56;10458002;28;20939;-76
2022/08/04 07:05:20;;;;;;;2.50;2.30;;;;;;;26.99;40.97;99856.88;10447836;28;20052;-74
2022/08/04 07:10:22;;;;;;;;;;;;;;;27.15;40.74;99863.50;10453079;28;20056;-73
2022/08/04 07:15:27;;;;;;;5.32;2.30;;;;;;;27.32;40.79;99858.09;10450729;28;19967;-73
2022/08/04 07:20:31;;;;;;;3.45;2.72;;;;;;;27.42;40.65;99855.59;10434651;28;20062;-74
2022/08/04 07:25:36;;;;;;;2.28;2.08;;;;;;;27.61;40.54;99849.91;10456895;28;20300;-74
2022/08/04 07:30:57;;;;;;;5.47;2.60;;;;;;;27.84;40.22;99841.56;10461123;28;20063;-71
2022/08/04 07:35:59;;;;;;;5.45;2.65;;;;;;;28.02;40.13;99845.19;10461760;28;20055;-75
2022/08/04 07:41:12;;;;;;;6.72;3.13;;;;;;;28.16;39.79;99843.75;10457351;28;20083;-75
2022/08/04 07:46:37;;;;;;;5.45;2.22;;;;;;;28.67;39.25;99849.16;10458358;28;20066;-74
2022/08/04 07:51:39;;;;;;;3.80;2.70;;;;;;;28.74;39.15;99840.78;10455927;28;20626;-74
2022/08/04 07:56:42;;;;;;;4.55;2.85;;;;;;;29.15;38.64;99844.00;10460532;28;20058;-75
2022/08/04 08:01:45;;;;;;;5.43;2.03;;;;;;;29.39;38.32;99841.00;10454205;28;21449;-74
2022/08/04 08:06:47;;;;;;;7.43;3.28;;;;;;;29.62;37.47;99832.47;10460770;28;20058;-74
2022/08/04 08:11:50;;;;;;;2.30;2.10;;;;;;;29.79;36.85;99837.00;10459981;28;20051;-73
2022/08/04 08:17:12;;;;;;;5.60;2.58;;;;;;;29.72;37.37;99825.41;10446888;28;20323;-73
2022/08/04 08:22:14;;;;;;;6.35;2.03;;;;;;;30.00;36.80;99835.28;10460182;28;20052;-73
2022/08/04 08:27:15;;;;;;;3.45;2.15;;;;;;;30.35;35.83;99835.78;10463683;28;20064;-76
2022/08/04 08:32:18;;;;;;;6.10;2.00;;;;;;;30.50;35.50;99836.72;10462267;28;20162;-72
2022/08/04 08:37:32;;;;;;;4.97;2.00;;;;;;;30.74;33.89;99827.25;10457979;28;20701;-76
2022/08/04 08:42:39;;;;;;;3.80;1.58;;;;;;;30.85;34.72;99826.16;10457204;28;20052;-72
2022/08/04 08:48:18;;;;;;;6.00;2.72;;;;;;;31.43;33.21;99826.09;10447750;28;20052;-72
2022/08/04 08:53:28;;;;;;;3.40;2.28;;;;;;;31.65;33.19;99814.88;10466569;28;20063;-72
2022/08/04 08:58:45;;;;;;;2.75;1.95;;;;;;;31.71;33.27;99819.28;10467321;28;20060;-76
2022/08/04 09:04:02;;;;;;;4.88;2.28;;;;;;;32.26;32.24;99829.72;10468539;28;20163;-77
2022/08/04 09:09:32;;;;;;;3.90;2.25;;;;;;;32.51;32.44;99811.50;10463863;28;20055;-74
2022/08/04 09:15:00;;;;;;;3.40;2.30;;;;;;;32.58;31.32;99804.56;10459784;28;20900;-74
2022/08/04 09:20:30;;;;;;;2.55;2.00;;;;;;;32.60;32.15;99807.03;10419905;28;20044;-72
2022/08/04 09:26:17;;;;;;;5.45;2.40;;;;;;;32.61;31.49;99803.19;10457153;28;20139;-73
2022/08/04 09:31:32;;;;;;;4.20;2.85;;;;;;;32.63;31.05;99812.00;10458266;28;20049;-73
2022/08/04 09:37:13;;;;;;;3.33;2.55;;;;;;;33.13;30.94;99798.28;10456831;28;20052;-73
2022/08/04 09:42:32;;;;;;;3.67;2.35;;;;;;;33.80;30.53;99804.19;10458395;28;20063;-74
2022/08/04 09:47:39;;;;;;;4.30;2.20;;;;;;;34.17;29.81;99805.50;10460062;28;20059;-75
2022/08/04 09:52:50;;;;;;;2.40;2.20;;;;;;;33.99;29.19;99806.25;10458554;28;20143;-75
2022/08/04 09:58:07;;;;;;;2.55;2.30;;;;;;;34.27;28.37;99804.56;10445194;28;20055;-75
2022/08/04 10:03:11;;;;;;;4.15;1.77;;;;;;;34.43;28.57;99802.47;10453039;28;20062;-75
2022/08/04 10:08:53;;;;;;;2.78;1.75;;;;;;;34.53;28.67;99796.03;10444807;28;20059;-76
2022/08/04 10:14:37;;;;;;;2.45;2.08;;;;;;;35.04;27.68;99789.84;10462377;28;20043;-74
2022/08/04 10:19:40;;;;;;;2.55;1.90;;;;;;;35.80;28.03;99783.44;10394518;28;20048;-76
2022/08/04 10:24:54;;;;;;;2.58;1.90;;;;;;;35.97;26.99;99782.03;10446014;28;20157;-74
2022/08/04 10:30:03;;;;;;;5.07;1.98;;;;;;;36.10;27.09;99781.25;10434608;28;20060;-73
2022/08/04 10:35:11;;;;;;;2.63;1.73;;;;;;;36.55;25.62;99770.41;10448968;28;20040;-74
2022/08/04 10:40:39;;;;;;;1.98;1.50;;;;;;;37.03;25.68;99771.06;10450795;28;20048;-76
2022/08/04 10:45:50;;;;;;;2.17;1.77;;;;;;;38.00;23.70;99759.56;10454691;28;20959;-76
2022/08/04 10:51:10;;;;;;;2.88;1.95;;;;;;;38.65;24.09;99760.78;10449825;28;20049;-74
2022/08/04 10:56:21;;;;;;;2.10;1.80;;;;;;;38.14;23.83;99749.13;10454583;28;20097;-77
2022/08/04 11:01:28;;;;;;;2.00;1.35;;;;;;;38.11;23.74;99747.00;10458029;28;20604;-74
2022/08/04 11:06:51;;;;;;;2.03;1.65;;;;;;;39.19;22.02;99745.81;10462459;28;20069;-74
2022/08/04 11:11:59;;;;;;;2.10;1.15;;;;;;;38.81;22.82;99740.84;10463079;28;20101;-74
2022/08/04 11:17:06;;;;;;;3.07;1.50;;;;;;;39.03;21.43;99739.88;10463165;28;20049;-75
2022/08/04 11:22:13;;;;;;;1.75;1.35;;;;;;;39.32;21.84;99739.25;10455401;28;20060;-75
2022/08/04 11:27:22;;;;;;;2.08;1.10;;;;;;;39.33;21.49;99740.88;10461432;28;20062;-74
2022/08/04 11:32:48;;;;;;;2.25;0.90;;;;;;;39.97;20.17;99744.00;10458595;28;20391;-77
2022/08/04 11:38:01;;;;;;;1.10;0.90;;;;;;;40.21;20.58;99749.03;10459193;28;20054;-75
2022/08/04 11:43:12;;;;;;;1.75;0.85;;;;;;;39.85;20.09;99742.75;10447705;28;20051;-77
2022/08/04 11:48:24;;;;;;;3.55;0.90;;;;;;;39.63;19.82;99748.56;10458479;28;20519;-75
2022/08/04 11:53:27;;;;;;;3.17;0.90;;;;;;;39.48;20.43;99744.28;10459733;28;20056;-75
2022/08/04 11:58:37;;;;;;;1.88;0.80;;;;;;;39.45;21.01;99739.38;10467338;28;20126;-76
2022/08/04 12:03:58;;;;;;;1.63;0.57;;;;;;;39.72;18.91;99741.78;10456082;28;20209;-75
2022/08/04 12:09:35;;;;;;;2.80;0.77;;;;;;;39.65;19.62;99738.72;10455311;28;20071;-76
2022/08/04 12:14:54;;;;;;;1.92;0.43;;;;;;;39.45;18.50;99731.03;10458265;28;20057;-76
2022/08/04 12:20:00;;;;;;;1.40;0.88;;;;;;;39.31;19.59;99720.91;10454287;28;20052;-74
2022/08/04 12:25:13;;;;;;;2.25;0.65;;;;;;;39.65;18.53;99730.38;10435813;28;20704;-75
2022/08/04 12:30:18;;;;;;;1.73;0.40;;;;;;;39.60;18.26;99723.00;10456178;28;20048;-76
2022/08/04 12:35:50;;;;;;;1.95;0.70;;;;;;;39.95;18.23;99711.75;10456612;28;20102;-75
2022/08/04 12:41:14;;;;;;;1.60;0.55;;;;;;;39.46;18.33;99705.66;10446954;28;20104;-75
2022/08/04 12:46:25;;;;;;;3.15;0.40;;;;;;;39.00;17.33;99699.63;10456906;28;20391;-75
2022/08/04 12:51:27;;;;;;;1.65;0.50;;;;;;;38.88;18.15;99702.25;10458457;28;20453;-75
2022/08/04 12:56:49;;;;;;;3.65;0.80;;;;;;;39.05;17.52;99693.06;10459212;28;20063;-74
2022/08/04 13:01:53;;;;;;;1.40;0.40;;;;;;;39.47;16.56;99698.09;10466360;28;20874;-78
2022/08/04 13:07:17;;;;;;;1.77;0.55;;;;;;;39.65;16.79;99685.81;10461533;28;20047;-77
2022/08/04 13:12:26;;;;;;;2.80;0.65;;;;;;;39.74;14.57;99689.38;10437629;28;20195;-77
2022/08/04 13:17:53;;;;;;;1.52;0.68;;;;;;;40.10;15.63;99685.31;10436983;28;20783;-75
2022/08/04 13:23:15;;;;;;;1.55;0.60;;;;;;;40.22;14.58;99672.63;10452321;28;20052;-77
2022/08/04 13:28:25;;;;;;;3.72;1.10;;;;;;;39.93;16.28;99674.22;10451580;28;20059;-74
2022/08/04 13:33:32;;;;;;;2.33;1.02;;;;;;;39.68;17.00;99668.44;10450834;28;20040;-75
2022/08/04 13:38:50;;;;;;;3.65;1.17;;;;;;;39.50;16.60;99672.38;10451239;28;20564;-74
2022/08/04 13:43:58;;;;;;;2.47;0.90;;;;;;;39.06;16.81;99664.91;10450910;28;20482;-78
2022/08/04 13:49:19;;;;;;;2.38;0.70;;;;;;;38.78;18.01;99658.06;10440114;28;20430;-75
2022/08/04 13:54:44;;;;;;;9.07;2.03;;;;;;;38.68;18.25;99648.91;10456773;28;20048;-75
2022/08/04 13:59:58;;;;;;;2.78;0.70;;;;;;;38.74;18.63;99634.88;10454949;28;20476;-77
2022/08/04 14:05:07;;;;;;;2.35;0.60;;;;;;;38.37;18.31;99622.06;10452936;28;20052;-77
2022/08/04 14:10:19;;;;;;;2.55;0.70;;;;;;;38.22;18.39;99619.75;10454422;28;21049;-78
2022/08/04 14:15:36;;;;;;;3.15;0.80;;;;;;;38.25;18.94;99623.84;10442264;28;20066;-78
2022/08/04 14:21:08;;;;;;;3.20;0.90;;;;;;;38.24;18.99;99613.84;10454343;28;20056;-75
2022/08/04 14:26:23;;;;;;;1.52;0.60;;;;;;;38.35;18.48;99607.66;10452575;28;20186;-75
2022/08/04 14:31:34;;;;;;;1.77;0.80;;;;;;;38.57;18.55;99597.56;10449866;28;20048;-78
2022/08/04 14:36:41;;;;;;;1.55;0.93;;;;;;;38.75;18.65;99592.00;10452458;28;20056;-77
2022/08/04 14:42:03;;;;;;;1.00;0.70;;;;;;;38.60;18.10;99591.34;10457478;28;20801;-77
2022/08/04 14:47:05;;;;;;;1.13;0.60;;;;;;;38.22;18.54;99586.41;10455909;28;20118;-77
2022/08/04 14:52:23;;;;;;;1.20;0.90;;;;;;;37.96;18.88;99584.38;10453855;28;20051;-77
2022/08/04 14:57:26;;;;;;;1.83;0.82;;;;;;;37.58;19.17;99572.97;10433613;28;21164;-77
2022/08/04 15:02:27;;;;;;;1.13;0.90;;;;;;;37.49;19.55;99576.53;10440245;28;20052;-78
2022/08/04 15:07:30;;;;;;;2.95;0.82;;;;;;;37.49;19.17;99582.09;10433864;28;20048;-76
2022/08/04 15:12:32;;;;;;;0.90;0.80;;;;;;;37.39;19.44;99584.34;10447247;28;20137;-77
2022/08/04 15:17:34;;;;;;;1.23;0.73;;;;;;;37.35;19.35;99577.78;10448279;28;20072;-78
2022/08/04 15:22:35;;;;;;;2.00;0.93;;;;;;;37.32;19.78;99577.28;10443917;28;22472;-77
2022/08/04 15:27:39;;;;;;;2.22;0.90;;;;;;;37.29;20.23;99569.59;10444746;28;20649;-76
2022/08/04 15:32:47;;;;;;;2.05;1.00;;;;;;;37.21;20.18;99567.56;10441226;28;20039;-77
2022/08/04 15:37:58;;;;;;;2.88;1.00;;;;;;;37.02;20.26;99566.97;10447500;28;20044;-76
2022/08/04 15:43:06;;;;;;;1.90;1.00;;;;;;;36.84;20.72;99571.59;10431907;28;20040;-79
2022/08/04 15:48:12;;;;;;;1.95;1.10;;;;;;;36.76;20.64;99553.75;10449808;28;20193;-76
2022/08/04 15:53:13;;;;;;;1.95;1.05;;;;;;;36.75;20.80;99547.41;10459343;28;20044;-77
2022/08/04 15:58:23;;;;;;;5.43;1.40;;;;;;;36.71;20.84;99551.91;10458449;28;20159;-77
2022/08/04 16:03:34;;;;;;;1.65;1.10;;;;;;;36.68;20.89;99551.69;10443042;28;20044;-77
2022/08/04 16:08:59;;;;;;;3.72;1.10;;;;;;;36.46;21.03;99545.03;10443189;28;20753;-78
2022/08/04 16:14:00;;;;;;;4.70;1.25;;;;;;;36.36;21.00;99546.13;10455030;28;20049;-78
2022/08/04 16:19:14;;;;;;;2.13;0.88;;;;;;;36.33;21.33;99538.41;10445285;28;20890;-77
2022/08/04 16:24:39;;;;;;;2.50;1.08;;;;;;;36.35;21.53;99536.16;10457872;28;20108;-76
2022/08/04 16:29:44;;;;;;;2.83;0.90;;;;;;;36.35;20.91;99538.94;10453468;28;20057;-78
2022/08/04 16:35:03;;;;;;;2.95;1.30;;;;;;;36.42;21.12;99528.22;10437099;28;20059;-77
2022/08/04 16:40:33;;;;;;;1.38;0.90;;;;;;;36.39;21.01;99519.72;10453347;28;20570;-75
2022/08/04 16:45:53;;;;;;;1.65;0.65;;;;;;;36.30;21.13;99521.59;10452117;28;20040;-74
2022/08/04 16:50:55;;;;;;;1.20;0.73;;;;;;;36.17;21.30;99521.31;10436645;28;20044;-75
2022/08/04 16:55:56;;;;;;;2.60;0.90;;;;;;;36.08;21.04;99523.19;10454568;28;20073;-73
2022/08/04 17:01:07;;;;;;;2.10;1.23;;;;;;;35.96;21.47;99520.13;10452005;28;20122;-75
2022/08/04 17:06:13;;;;;;;3.28;0.95;;;;;;;35.84;20.91;99517.91;10452863;28;20064;-75
2022/08/04 17:11:15;;;;;;;2.13;0.88;;;;;;;35.77;21.30;99512.75;10438268;28;20159;-75
2022/08/04 17:16:19;;;;;;;2.10;1.02;;;;;;;35.64;21.54;99519.97;10453150;28;20603;-75
2022/08/04 17:21:24;;;;;;;1.73;0.88;;;;;;;35.48;21.71;99516.69;10454036;28;20052;-75
2022/08/04 17:26:28;;;;;;;2.85;1.05;;;;;;;35.29;21.75;99507.66;10448377;28;20638;-75
2022/08/04 17:31:42;;;;;;;1.80;0.95;;;;;;;35.14;22.51;99497.69;10453797;28;20992;-74
2022/08/04 17:36:43;;;;;;;1.25;0.70;;;;;;;35.02;22.98;99510.03;10435538;28;20063;-74
2022/08/04 17:41:46;;;;;;;2.72;1.02;;;;;;;34.91;23.32;99505.03;10456744;28;20159;-76
2022/08/04 17:46:49;;;;;;;3.53;1.02;;;;;;;34.83;23.31;99507.38;10435533;28;20113;-77
2022/08/04 17:51:52;;;;;;;5.47;1.40;;;;;;;34.73;24.12;99510.28;10450956;28;20049;-77
2022/08/04 17:57:16;;;;;;;1.33;1.00;;;;;;;34.63;24.08;99515.97;10437648;28;20662;-76
2022/08/04 18:02:22;;;;;;;1.48;0.85;;;;;;;34.52;24.03;99513.38;10441183;28;20056;-76
2022/08/04 18:07:36;;;;;;;3.17;1.27;;;;;;;34.47;23.99;99516.25;10450919;28;20048;-76
2022/08/04 18:13:05;;;;;;;3.13;0.95;;;;;;;34.44;23.75;99510.47;10459480;28;20055;-78
2022/08/04 18:18:20;;;;;;;2.50;1.23;;;;;;;34.34;24.07;99517.81;10461609;28;20178;-78
2022/08/04 18:23:24;;;;;;;3.13;1.50;;;;;;;34.30;23.47;99515.94;10443041;28;20055;-76
2022/08/04 18:28:33;;;;;;;2.35;1.30;;;;;;;34.37;23.76;99526.63;10440248;28;20052;-78
2022/08/04 18:33:34;;;;;;;3.03;0.98;;;;;;;34.24;24.01;99528.16;10466503;28;20051;-78
2022/08/04 18:38:42;;;;;;;1.25;0.85;;;;;;;34.06;24.47;99544.41;10453546;28;20044;-78
2022/08/04 18:43:59;;;;;;;3.22;1.10;;;;;;;33.89;24.71;99544.13;10455426;28;20052;-76
2022/08/04 18:49:03;;;;;;;3.00;1.13;;;;;;;33.73;24.75;99552.56;10453705;28;20494;-76
2022/08/04 18:54:05;;;;;;;;;;;;;;;33.58;24.91;99561.00;10438949;28;20132;-74
2022/08/04 18:59:08;;;;;;;2.97;1.35;;;;;;;33.42;25.33;99566.72;10449226;28;20029;-73
2022/08/04 19:04:11;;;;;;;1.58;0.75;;;;;;;33.30;25.50;99566.28;10437230;28;20139;-72
2022/08/04 19:09:33;;;;;;;2.78;0.77;;;;;;;33.19;25.96;99570.22;10451926;28;20059;-73
2022/08/04 19:14:52;;;;;;;2.92;0.98;;;;;;;33.07;26.16;99563.19;10449222;28;20091;-75
2022/08/04 19:20:08;;;;;;;3.28;1.17;;;;;;;32.98;26.60;99564.09;10447674;28;20055;-75
2022/08/04 19:25:24;;;;;;;5.32;3.47;;;;;;;32.83;26.36;99573.31;10382068;28;1067266;-75
2022/08/04 19:30:46;;;;;;;4.57;2.53;;;;;;;32.72;27.02;99584.41;10457087;28;20132;-73
2022/08/04 19:35:48;;;;;;;3.97;1.90;;;;;;;32.61;26.67;99577.31;10442638;28;20040;-76
2022/08/04 19:40:51;;;;;;;5.30;1.40;;;;;;;32.49;27.16;99591.44;10456767;28;20057;-73
2022/08/04 19:45:53;;;;;;;3.58;1.45;;;;;;;32.34;27.13;99595.09;10456058;28;20048;-74
2022/08/04 19:50:56;;;;;;;6.57;1.70;;;;;;;32.32;27.62;99597.31;10454784;28;20056;-74
2022/08/04 19:55:58;;;;;;;3.80;1.45;;;;;;;32.20;27.88;99596.81;10457402;28;20051;-75
2022/08/04 20:01:00;;;;;;;3.88;1.50;;;;;;;32.16;27.58;99592.97;10455958;28;20063;-73
2022/08/04 20:06:02;;;;;;;2.08;1.00;;;;;;;32.08;27.70;99599.88;10454077;28;20064;-74
2022/08/04 20:11:03;;;;;;;1.52;1.10;;;;;;;31.93;27.96;99597.19;10453705;28;20139;-74
2022/08/04 20:16:11;;;;;;;2.15;1.13;;;;;;;31.85;28.24;99598.63;10454566;28;20063;-74
2022/08/04 20:21:31;;;;;;;2.42;1.65;;;;;;;31.75;28.67;99604.16;10460288;28;20048;-74
2022/08/04 20:26:53;;;;;;;2.72;1.50;;;;;;;31.66;29.01;99602.00;10454554;28;20059;-73
2022/08/04 20:31:54;;;;;;;3.80;1.55;;;;;;;31.45;29.49;99611.34;10459190;28;20052;-75
2022/08/04 20:37:06;;;;;;;4.13;1.60;;;;;;;31.38;29.85;99606.13;10457730;28;20055;-73
2022/08/04 20:42:10;;;;;;;2.83;1.40;;;;;;;31.30;30.31;99609.44;10454594;28;20165;-74
2022/08/04 20:47:12;;;;;;;1.85;1.33;;;;;;;31.19;30.98;99606.69;10458862;28;20500;-76
2022/08/04 20:52:15;;;;;;;5.03;1.15;;;;;;;31.00;31.36;99609.19;10454472;28;20065;-75
2022/08/04 20:57:20;;;;;;;4.57;1.38;;;;;;;30.79;32.66;99624.81;10463612;28;20048;-72
2022/08/04 21:02:42;;;;;;;3.10;1.30;;;;;;;30.59;32.84;99617.34;10444130;28;20056;-71
2022/08/04 21:07:44;;;;;;;4.60;1.48;;;;;;;30.39;33.75;99620.03;10459196;28;20047;-71
2022/08/04 21:12:49;;;;;;;3.35;2.00;;;;;;;30.35;34.43;99627.16;10457702;28;20213;-74
2022/08/04 21:17:52;;;;;;;5.07;2.00;;;;;;;30.21;35.11;99627.66;10456131;28;20060;-76
2022/08/04 21:23:04;;;;;;;4.10;1.80;;;;;;;30.05;35.12;99635.00;10449160;28;20129;-73
2022/08/04 21:28:07;;;;;;;3.97;1.55;;;;;;;29.90;35.95;99621.22;10474362;28;20104;-74
2022/08/04 21:33:09;;;;;;;5.47;1.53;;;;;;;29.90;36.33;99633.00;10476021;28;20055;-74
2022/08/04 21:38:10;;;;;;;11.60;2.93;;;;;;;29.79;36.80;99626.63;10477480;28;20666;-75
2022/08/04 21:43:18;;;;;;;4.53;1.80;;;;;;;29.70;37.47;99643.84;10474868;28;20078;-75
2022/08/04 21:48:20;;;;;;;4.40;2.50;;;;;;;29.58;37.94;99631.16;10475356;28;20055;-74
2022/08/04 21:53:21;;;;;;;6.63;2.67;;;;;;;29.54;37.95;99641.00;10469967;28;20051;-72
2022/08/04 21:58:28;;;;;;;4.07;1.77;;;;;;;29.46;37.97;99648.91;10483102;28;20076;-75
2022/08/04 22:03:45;;;;;;;5.20;2.13;;;;;;;29.43;38.21;99645.59;10489472;28;20211;-76
2022/08/04 22:08:55;;;;;;;7.28;2.03;;;;;;;29.34;38.59;99646.38;10508858;28;20044;-74
2022/08/04 22:14:08;;;;;;;5.15;1.80;;;;;;;29.21;38.99;99637.47;10481974;28;20121;-75
2022/08/04 22:19:12;;;;;;;4.82;2.05;;;;;;;29.15;39.23;99632.19;10469947;28;20119;-73
2022/08/04 22:24:14;;;;;;;2.63;1.38;;;;;;;29.01;40.00;99634.56;10477383;28;20728;-74
2022/08/04 22:29:15;;;;;;;3.33;1.70;;;;;;;28.90;40.53;99642.69;10479023;28;20056;-75
2022/08/04 22:34:18;;;;;;;7.03;2.47;;;;;;;28.78;41.09;99643.91;10472391;28;20123;-74
2022/08/04 22:39:24;;;;;;;7.70;2.17;;;;;;;28.76;41.04;99652.38;10470521;28;20055;-74
2022/08/04 22:44:28;;;;;;;5.55;1.90;;;;;;;28.69;41.27;99647.13;10461731;28;20056;-73
2022/08/04 22:49:35;;;;;;;4.97;1.80;;;;;;;28.62;41.10;99651.16;10470678;28;20044;-74
2022/08/04 22:54:37;;;;;;;4.55;1.67;;;;;;;28.52;41.76;99652.66;10471633;28;20162;-75
2022/08/04 22:59:40;;;;;;;3.45;1.67;;;;;;;28.48;41.78;99646.06;10465015;28;20052;-76
2022/08/04 23:04:43;;;;;;;7.00;2.03;;;;;;;28.47;41.90;99655.34;10476545;28;20049;-75
2022/08/04 23:09:50;;;;;;;5.47;1.75;;;;;;;28.38;41.97;99663.19;10478574;28;20887;-75
2022/08/04 23:14:52;;;;;;;5.13;1.90;;;;;;;28.36;42.25;99653.59;10479088;28;20036;-76
2022/08/04 23:19:57;;;;;;;6.10;2.25;;;;;;;28.28;42.62;99662.22;10482400;28;20093;-75
2022/08/04 23:25:00;;;;;;;3.75;1.92;;;;;;;28.30;42.44;99677.31;10480279;28;20040;-75
2022/08/04 23:30:04;;;;;;;4.45;1.80;;;;;;;28.20;43.16;99678.00;10459372;28;20044;-75
2022/08/04 23:35:06;;;;;;;3.72;1.50;;;;;;;28.26;42.90;99694.50;10462946;28;20044;-76
2022/08/04 23:40:10;;;;;;;3.35;1.77;;;;;;;28.19;43.56;99703.72;10482612;28;20052;-74
2022/08/04 23:45:31;;;;;;;5.20;1.83;;;;;;;28.14;43.64;99695.44;10486157;28;20772;-76
2022/08/04 23:50:52;;;;;;;3.72;1.70;;;;;;;28.08;43.08;99701.13;10485677;28;20141;-76
2022/08/04 23:55:54;;;;;;;4.90;1.90;;;;;;;28.10;43.11;99705.22;10481083;28;20075;-72
